Verdugo City, CA (91046)

1:36 AM PDT on August 31, 2014 (GMT -0700)
Mountain Oaks | Change Station
CLOSE
Current Station
Personal Weather Station
Location: Glendale, CA
Elevation: 1540 ft
Nearby Weather Stations

Elev 1540 ft 34.22 °N, 118.25 °W | Updated 7 minutes ago

Partly Cloudy
Partly Cloudy
72.6 °F
Feels Like 77 °F
N
0.0
Wind Variable Wind from SSW
Gusts 2.0 mph

Today
High -- | Low -- °F
--% Chance of Precip.
Yesterday
High -- | Low -- °F
Precip. -- in
6:25 AM 7:20 PM
Waxing Crescent, 29% visible
Pressure 29.75 in
Visibility 10.0 miles
Clouds Clear
Heat Index 77 °F
Dew Point 56 °F
Humidity 56%
Rainfall 0.00 in
Snow Depth Not available.
UV 0.0 out of 12
Pollen 8.20 out of 12
Ozone Good
PM2.5 Moderate
Flu Activity Not available.
METAR KBUR 310753Z 11006KT 10SM CLR 24/14 A2979 RMK AO2 SLP072 T02390144 403390183

More Conditions Fewer Conditions

Pressure 29.75 in
Visibility 10.0 miles
Clouds Clear
Heat Index 77 °F
Dew Point 56 °F
Humidity 56%
Rainfall 0.00 in
Snow Depth Not available.
UV 0.0 out of 12
Pollen 8.20 out of 12
Ozone Good
PM2.5 Moderate
Flu Activity Not available.
METAR KBUR 310753Z 11006KT 10SM CLR 24/14 A2979 RMK AO2 SLP072 T02390144 403390183

More Conditions Fewer Conditions

10-Day Weather Forecast

Almanac

Astronomy

Aug. 31, 2014 Rise Set
Actual Time 6:25 AM PDT 7:20 PM PDT
Civil Twilight 6:00 AM PDT 7:45 PM PDT
Nautical Twilight 5:29 AM PDT 8:15 PM PDT
Astronomical Twilight 4:58 AM PDT 8:47 PM PDT
Moon 12:00 PM PDT 10:55 PM PDT
Length of Visible Light 13h 45m
Length of Day
12h 54m
Tomorrow will be 2m 2s shorter.
Waxing Crescent, 29% of the Moon is Illuminated
Today
Waxing Crescent
Sep 2
First Quarter
Sep 8
Full
Sep 15
Last Quarter
Sep 24
New

Today's Extremes

State Highs State Lows

Community

WunderPhotos

Upload Photos

1,748,826 photos uploaded!

Nearby

Air Quality

  Air Quality AQ Index Pollutant
Yesterday Unhealthy for Sensitive Groups
OZONE
Yesterday Moderate
PM2.5
Current Moderate
PM2.5
Current Good
OZONE
Sunday Good
PM10
Sunday Moderate
OZONE
Sunday Good
CO
Sunday Good
NO2

Snow Depth

Station Depth Elevation
Leavitt Lake 1 in 9400 ft
Leavitt Meadows 1 in 7200 ft
Summit Meadow 1 in 9122 ft
Monitor Pass 0 in 8350 ft
Blue Lakes 0 in 8000 ft

Earthquake Activity

City Distance Mag. Time & Date
Malibu, California 59 miles 2.5 8:11 AM PDT
2014-08-30
Minimum magnitude displayed is 2.5.

Coastal Water Temperatures

Place Temperature
Santa Monica Pier 68.0 °F
Los Angeles, CA 66.9 °F
La Jolla, CA 71.1 °F

Nearby Weather Stations